Time;durP1;ratioP1;P1;durP2;ratioP2;P2;SDS_P1;SDS_P2;PMS_P1;PMS_P2;Temp;Humidity;BMP_temperature;BMP_pressure;BME280_temperature;BME280_humidity;BME280_pressure;Samples;Min_cycle;Max_cycle;Signal;HPM_P1;HPM_P2
2021/01/01 00:02:03;;;;;;;86.67;60.37;;;1.40;99.90;;;2.14;98.60;96687.78;5198292;28;20230;-78
2021/01/01 00:04:35;;;;;;;98.37;69.57;;;1.30;99.90;;;2.17;97.90;96688.00;5184848;28;20297;-77
2021/01/01 00:07:07;;;;;;;102.40;74.43;;;1.30;99.90;;;2.20;97.83;96684.81;5186493;28;20194;-77
2021/01/01 00:09:39;;;;;;;117.63;83.50;;;1.30;99.90;;;2.25;97.24;96691.94;5204949;28;20273;-77
2021/01/01 00:12:12;;;;;;;98.63;74.20;;;1.20;99.90;;;2.17;98.01;96682.09;5199376;28;20210;-77
2021/01/01 00:14:44;;;;;;;112.93;83.10;;;1.20;99.90;;;2.18;97.57;96684.75;5185967;28;20291;-77
2021/01/01 00:17:16;;;;;;;112.27;84.00;;;1.20;99.90;;;2.12;97.47;96678.38;5183802;28;20199;-77
2021/01/01 00:19:48;;;;;;;76.07;53.47;;;1.30;99.90;;;2.06;97.27;96676.34;5183901;28;20217;-77
2021/01/01 00:22:20;;;;;;;54.87;40.83;;;1.20;99.90;;;2.02;97.52;96671.81;5190071;28;20594;-77
2021/01/01 00:24:52;;;;;;;36.30;28.73;;;1.20;99.90;;;2.00;97.87;96673.34;5187433;28;20573;-77
2021/01/01 00:27:28;;;;;;;31.73;26.43;;;1.20;99.90;;;1.99;97.74;96676.66;5190981;28;20229;-77
2021/01/01 00:30:00;;;;;;;30.73;24.90;;;1.20;99.90;;;2.03;97.64;96673.56;5189960;28;20320;-77
2021/01/01 00:32:36;;;;;;;23.97;20.13;;;1.30;99.90;;;2.07;98.58;96667.13;5183797;28;20245;-77
2021/01/01 00:35:09;;;;;;;19.27;16.47;;;1.30;99.90;;;2.15;97.03;96678.63;5183461;28;20198;-77
2021/01/01 00:37:41;;;;;;;21.27;17.33;;;1.30;99.90;;;2.16;97.88;96681.22;5183652;28;20583;-78
2021/01/01 00:40:14;;;;;;;20.17;17.97;;;1.30;99.90;;;2.17;97.44;96687.13;5195477;28;20190;-77
2021/01/01 00:42:47;;;;;;;18.70;15.97;;;1.30;99.90;;;2.13;97.92;96677.63;5204441;28;20225;-77
2021/01/01 00:45:19;;;;;;;20.03;17.93;;;1.30;99.90;;;2.15;98.07;96666.00;5191214;28;20199;-77
2021/01/01 00:47:51;;;;;;;17.40;15.17;;;1.40;99.90;;;2.18;97.69;96674.66;5183547;28;20206;-77
2021/01/01 00:50:23;;;;;;;13.83;12.43;;;1.40;99.90;;;2.19;98.25;96671.34;5195076;28;20228;-77
2021/01/01 00:52:55;;;;;;;11.97;10.77;;;1.40;99.90;;;2.14;97.96;96680.22;5203915;28;20255;-76
2021/01/01 00:55:27;;;;;;;12.70;11.27;;;1.30;99.90;;;2.14;97.62;96685.28;5182494;28;20209;-77
2021/01/01 00:58:00;;;;;;;10.80;9.80;;;1.30;99.90;;;2.07;98.15;96679.72;5183372;28;20215;-77
2021/01/01 01:00:32;;;;;;;12.67;11.37;;;1.20;99.90;;;2.01;97.63;96680.16;5182996;28;20206;-77
2021/01/01 01:03:04;;;;;;;13.10;11.80;;;1.20;99.90;;;1.99;97.66;96684.22;5183762;28;20250;-77
2021/01/01 01:05:36;;;;;;;13.20;11.80;;;1.20;99.90;;;2.03;97.87;96688.69;5203576;28;20200;-77
2021/01/01 01:08:08;;;;;;;14.93;13.13;;;1.20;99.90;;;2.08;97.68;96681.47;5203427;28;20210;-77
2021/01/01 01:10:42;;;;;;;14.37;12.53;;;1.20;99.90;;;2.06;97.99;96696.50;5203464;28;20228;-77
2021/01/01 01:13:15;;;;;;;13.23;11.90;;;1.20;99.90;;;1.99;97.45;96699.34;5203474;28;20726;-77
2021/01/01 01:15:47;;;;;;;14.90;12.07;;;1.10;99.90;;;2.07;98.47;96704.91;5203226;28;20711;-77
2021/01/01 01:18:19;;;;;;;12.73;11.43;;;1.20;99.90;;;2.14;97.31;96712.13;5203273;28;20236;-77
2021/01/01 01:20:51;;;;;;;11.73;10.53;;;1.20;99.90;;;2.13;96.75;96700.31;5197031;28;20564;-76
2021/01/01 01:23:23;;;;;;;13.13;11.73;;;1.20;99.90;;;2.12;97.74;96707.00;5187201;28;20198;-77
2021/01/01 01:25:55;;;;;;;13.33;11.97;;;1.10;99.90;;;2.11;97.03;96712.78;5202692;28;20200;-76
2021/01/01 01:28:28;;;;;;;14.00;12.60;;;1.20;99.90;;;2.12;96.86;96709.53;5203536;28;20700;-77
2021/01/01 01:31:01;;;;;;;15.10;13.00;;;1.20;99.90;;;2.17;96.87;96724.94;5202910;28;20227;-75
2021/01/01 01:33:33;;;;;;;14.87;12.77;;;1.20;99.90;;;2.11;97.25;96725.38;5198950;28;20902;-75
2021/01/01 01:36:06;;;;;;;13.33;12.03;;;1.20;99.90;;;2.06;96.48;96726.72;5189132;28;20201;-75
2021/01/01 01:38:38;;;;;;;13.90;12.50;;;1.20;99.90;;;2.06;97.24;96731.78;5203733;28;20212;-74
2021/01/01 01:41:10;;;;;;;13.77;12.37;;;1.20;99.90;;;2.01;96.59;96730.56;5203096;28;20217;-75
2021/01/01 01:43:43;;;;;;;13.83;12.37;;;1.20;99.90;;;2.07;97.37;96746.09;5198061;28;20206;-75
2021/01/01 01:46:15;;;;;;;13.97;12.00;;;1.20;99.90;;;2.13;97.72;96756.63;5189463;28;20198;-75
2021/01/01 01:48:47;;;;;;;15.87;14.27;;;1.30;99.90;;;2.16;97.39;96749.28;5203409;28;20565;-75
2021/01/01 01:51:20;;;;;;;16.77;15.03;;;1.30;99.90;;;2.21;96.90;96747.09;5203230;28;20241;-75
2021/01/01 01:53:52;;;;;;;17.33;15.37;;;1.30;99.90;;;2.18;97.38;96756.97;5202901;28;20212;-75
2021/01/01 01:56:24;;;;;;;15.20;13.63;;;1.20;99.90;;;2.18;96.78;96750.28;5183200;28;20205;-75
2021/01/01 01:58:57;;;;;;;13.57;12.17;;;1.20;99.90;;;2.20;97.24;96746.22;5191155;28;20205;-75
2021/01/01 02:01:31;;;;;;;13.37;12.07;;;1.30;99.90;;;2.23;97.14;96748.97;5202183;28;20220;-75
2021/01/01 02:04:03;;;;;;;13.53;11.87;;;1.30;99.90;;;2.23;97.08;96743.91;5203459;28;20670;-75
2021/01/01 02:06:36;;;;;;;11.87;10.77;;;1.40;99.90;;;2.23;97.60;96741.41;5203239;28;20199;-75
2021/01/01 02:09:08;;;;;;;12.40;11.03;;;1.40;99.90;;;2.22;97.48;96752.22;5207235;28;20219;-75
2021/01/01 02:11:42;;;;;;;12.37;11.17;;;1.30;99.90;;;2.24;96.82;96753.22;5205869;28;20217;-75
2021/01/01 02:14:16;;;;;;;12.70;11.50;;;1.40;99.90;;;2.28;97.10;96753.44;5206604;28;20224;-75
2021/01/01 02:16:48;;;;;;;13.97;12.57;;;1.40;99.90;;;2.27;96.44;96756.72;5197392;28;20415;-75
2021/01/01 02:19:20;;;;;;;16.00;14.40;;;1.50;99.90;;;2.33;96.81;96759.69;5197976;28;20204;-75
2021/01/01 02:21:58;;;;;;;13.60;12.17;;;1.50;99.90;;;2.39;96.67;96752.53;5206939;28;20220;-75
2021/01/01 02:24:31;;;;;;;12.73;11.47;;;1.60;99.90;;;2.42;97.10;96750.22;5207091;28;20205;-75
2021/01/01 02:27:03;;;;;;;12.20;10.87;;;1.60;99.90;;;2.43;96.96;96757.00;5205960;28;20198;-76
2021/01/01 02:29:35;;;;;;;12.73;11.43;;;1.60;99.90;;;2.44;97.15;96761.31;5191983;28;20710;-75
2021/01/01 02:32:07;;;;;;;13.03;11.73;;;1.60;99.90;;;2.46;96.28;96754.72;5203577;28;20599;-75
2021/01/01 02:34:40;;;;;;;12.60;11.40;;;1.50;99.90;;;2.45;97.14;96756.34;5206001;28;20650;-75
2021/01/01 02:37:12;;;;;;;14.77;13.17;;;1.60;99.90;;;2.46;97.27;96755.63;5206205;28;20248;-75
2021/01/01 02:39:45;;;;;;;14.13;12.23;;;1.60;99.90;;;2.46;96.49;96762.28;5206065;28;20558;-74
2021/01/01 02:42:17;;;;;;;14.87;12.47;;;1.60;99.90;;;2.46;97.31;96755.63;5206120;28;20700;-75
2021/01/01 02:44:49;;;;;;;12.40;11.10;;;1.50;99.90;;;2.50;96.30;96753.31;5186041;28;20220;-75
2021/01/01 02:47:21;;;;;;;12.07;10.87;;;1.50;99.90;;;2.51;96.18;96752.53;5185715;28;20205;-75
2021/01/01 02:49:53;;;;;;;10.83;9.83;;;1.50;99.90;;;2.53;96.18;96761.94;5189316;28;20637;-75
2021/01/01 02:52:25;;;;;;;10.43;9.43;;;1.50;99.90;;;2.53;95.94;96764.47;5185222;28;20277;-75
2021/01/01 02:54:58;;;;;;;10.43;9.43;;;1.50;99.90;;;2.51;96.08;96766.00;5186198;28;20209;-75
2021/01/01 02:57:30;;;;;;;10.43;9.40;;;1.50;99.90;;;2.48;95.83;96768.31;5185129;28;20305;-75
2021/01/01 03:00:05;;;;;;;9.37;8.53;;;1.50;99.90;;;2.47;95.84;96769.09;5203531;28;20207;-75
2021/01/01 03:02:37;;;;;;;11.03;9.83;;;1.50;99.90;;;2.40;95.69;96771.94;5204848;28;20222;-75
2021/01/01 03:05:11;;;;;;;10.97;9.87;;;1.50;99.90;;;2.36;95.34;96767.47;5206373;28;20204;-74
2021/01/01 03:07:43;;;;;;;10.60;9.57;;;1.40;99.90;;;2.37;95.59;96762.50;5206157;28;20211;-75
2021/01/01 03:10:16;;;;;;;11.20;10.00;;;1.50;99.90;;;2.41;96.59;96763.63;5205347;28;20222;-75
2021/01/01 03:12:48;;;;;;;11.00;9.87;;;1.50;99.90;;;2.53;96.68;96764.47;5205845;28;20309;-75
2021/01/01 03:15:20;;;;;;;11.33;10.17;;;1.60;99.90;;;2.51;95.96;96776.09;5188330;28;20271;-75
2021/01/01 03:17:52;;;;;;;11.83;10.70;;;1.60;99.90;;;2.53;95.93;96778.72;5193349;28;20713;-75
2021/01/01 03:20:25;;;;;;;10.90;9.80;;;1.60;99.90;;;2.49;96.20;96777.66;5184820;28;20207;-75
2021/01/01 03:22:57;;;;;;;11.70;10.50;;;1.60;99.90;;;2.48;96.67;96780.91;5185099;28;20218;-76
2021/01/01 03:25:30;;;;;;;10.33;9.37;;;1.60;99.90;;;2.48;95.73;96779.28;5185024;28;20218;-75
2021/01/01 03:28:02;;;;;;;10.03;9.03;;;1.50;99.90;;;2.51;96.02;96781.13;5184269;28;20214;-75
2021/01/01 03:30:34;;;;;;;10.33;9.17;;;1.60;99.90;;;2.51;96.16;96783.66;5185148;28;20226;-75
2021/01/01 03:33:07;;;;;;;9.80;8.80;;;1.50;99.90;;;2.50;95.89;96778.53;5185214;28;20222;-75
2021/01/01 03:35:40;;;;;;;10.63;9.63;;;1.60;99.90;;;2.47;95.52;96784.22;5185286;28;20209;-75
2021/01/01 03:38:12;;;;;;;10.80;9.80;;;1.60;99.90;;;2.54;96.05;96781.34;5194272;28;20234;-76
2021/01/01 03:40:46;;;;;;;10.80;9.80;;;1.60;99.90;;;2.52;96.01;96780.38;5204592;28;20205;-76
2021/01/01 03:43:18;;;;;;;11.27;10.10;;;1.60;99.90;;;2.47;96.12;96781.69;5205405;28;20238;-75
2021/01/01 03:45:50;;;;;;;11.93;10.73;;;1.60;99.90;;;2.43;95.97;96782.22;5204999;28;20281;-75
2021/01/01 03:48:22;;;;;;;11.03;9.97;;;1.60;99.90;;;2.46;95.58;96788.38;5199780;28;20217;-75
2021/01/01 03:50:54;;;;;;;10.67;9.57;;;1.60;99.90;;;2.46;96.18;96783.34;5185101;28;20226;-76
2021/01/01 03:53:27;;;;;;;10.73;9.63;;;1.60;99.90;;;2.40;95.97;96787.06;5184664;28;20198;-75
2021/01/01 03:55:59;;;;;;;11.93;10.63;;;1.60;99.90;;;2.42;96.76;96798.13;5185139;28;20305;-75
2021/01/01 03:58:31;;;;;;;10.63;9.63;;;1.60;99.90;;;2.43;96.29;96787.28;5184345;28;20198;-75
2021/01/01 04:01:03;;;;;;;11.53;10.07;;;1.60;99.90;;;2.46;96.53;96792.53;5185313;28;20248;-76
2021/01/01 04:03:36;;;;;;;9.93;8.90;;;1.70;99.90;;;2.50;97.48;96792.00;5184109;28;20291;-75
2021/01/01 04:06:08;;;;;;;11.63;10.50;;;1.80;99.90;;;2.55;97.02;96795.72;5185148;28;20373;-75
2021/01/01 04:08:40;;;;;;;11.07;9.97;;;1.80;99.90;;;2.56;96.22;96796.59;5189587;28;20194;-74
2021/01/01 04:11:12;;;;;;;11.53;10.33;;;1.80;99.90;;;2.57;97.11;96791.63;5205259;28;20234;-75
2021/01/01 04:13:45;;;;;;;10.73;9.73;;;1.80;99.90;;;2.55;96.80;96793.19;5197270;28;20199;-75
2021/01/01 04:16:17;;;;;;;10.93;9.83;;;1.70;99.90;;;2.56;96.92;96806.69;5196182;28;20208;-75
2021/01/01 04:18:49;;;;;;;13.13;11.30;;;1.70;99.90;;;2.56;96.57;96794.06;5197427;28;20191;-75
2021/01/01 04:21:21;;;;;;;11.43;10.23;;;1.80;99.90;;;2.56;96.82;96794.06;5184761;28;20342;-75
2021/01/01 04:23:53;;;;;;;13.13;11.73;;;1.70;99.90;;;2.55;97.19;96798.25;5191143;28;20216;-75
2021/01/01 04:26:26;;;;;;;12.27;10.33;;;1.70;99.90;;;2.58;96.59;96798.47;5204629;28;20200;-75
2021/01/01 04:28:58;;;;;;;12.33;10.93;;;1.70;99.90;;;2.51;96.78;96791.22;5196813;28;20195;-75
2021/01/01 04:31:34;;;;;;;12.87;11.10;;;1.70;99.90;;;2.48;97.65;96793.53;5184159;28;20769;-75
2021/01/01 04:34:07;;;;;;;11.80;10.70;;;1.70;99.90;;;2.50;97.42;96802.09;5184111;28;20228;-75
2021/01/01 04:36:39;;;;;;;13.20;11.80;;;1.70;99.90;;;2.49;97.65;96797.81;5183961;28;20296;-75
2021/01/01 04:39:11;;;;;;;12.23;10.73;;;1.70;99.90;;;2.47;97.77;96791.78;5184131;28;20605;-74
2021/01/01 04:41:45;;;;;;;11.30;10.13;;;1.70;99.90;;;2.46;97.12;96797.56;5184823;28;20217;-75
2021/01/01 04:44:17;;;;;;;11.43;10.33;;;1.70;99.90;;;2.52;97.46;96797.13;5203025;28;20208;-75
2021/01/01 04:46:50;;;;;;;11.83;10.63;;;1.80;99.90;;;2.55;97.71;96797.34;5193508;28;20209;-74
2021/01/01 04:49:22;;;;;;;11.93;10.73;;;1.80;99.90;;;2.56;98.35;96800.00;5204609;28;20199;-75
2021/01/01 04:51:57;;;;;;;12.47;10.57;;;1.80;99.90;;;2.57;98.58;96800.84;5187830;28;20219;-75
2021/01/01 04:54:35;;;;;;;13.07;10.80;;;1.90;99.90;;;2.55;98.44;96800.78;5186409;28;20596;-74
2021/01/01 04:57:09;;;;;;;11.67;10.20;;;1.80;99.90;;;2.53;98.14;96804.81;5204008;28;20658;-75
2021/01/01 04:59:41;;;;;;;12.67;10.87;;;1.80;99.90;;;2.51;98.59;96796.25;5204996;28;20204;-75
2021/01/01 05:02:13;;;;;;;13.10;11.00;;;1.70;99.90;;;2.45;98.66;96806.78;5187174;28;20230;-75
2021/01/01 05:04:45;;;;;;;12.93;11.57;;;1.70;99.90;;;2.45;99.30;96806.78;5187647;28;20292;-75
2021/01/01 05:07:18;;;;;;;11.70;10.13;;;1.70;99.90;;;2.44;99.08;96797.47;5204447;28;20571;-75
2021/01/01 05:09:50;;;;;;;12.63;10.93;;;1.70;99.90;;;2.52;98.82;96808.13;5204829;28;20210;-75
2021/01/01 05:12:31;;;;;;;13.97;12.00;;;1.80;99.90;;;2.57;99.06;96809.28;5184817;28;20226;-75
2021/01/01 05:15:05;;;;;;;12.63;11.33;;;1.80;99.90;;;2.53;99.56;96812.38;5184216;28;20204;-75
2021/01/01 05:17:37;;;;;;;12.93;11.37;;;1.80;99.90;;;2.54;99.21;96811.59;5203601;28;20542;-75
2021/01/01 05:20:11;;;;;;;12.70;11.20;;;1.70;99.90;;;2.56;99.41;96810.06;5184692;28;20286;-75
2021/01/01 05:22:43;;;;;;;13.83;11.87;;;1.80;99.90;;;2.54;99.44;96811.59;5183111;28;20304;-75
2021/01/01 05:25:17;;;;;;;12.60;11.30;;;1.80;99.90;;;2.53;99.61;96819.94;5182747;28;20195;-75
2021/01/01 05:27:59;;;;;;;11.97;10.77;;;1.80;99.90;;;2.52;99.47;96814.78;5183581;28;20298;-75
2021/01/01 05:30:32;;;;;;;13.60;11.17;;;1.80;99.90;;;2.51;99.52;96815.56;5183356;28;20218;-75
2021/01/01 05:33:07;;;;;;;12.93;11.43;;;1.80;99.90;;;2.39;98.53;96820.63;5183450;28;20222;-75
2021/01/01 05:35:39;;;;;;;12.30;10.87;;;1.70;99.90;;;2.41;99.41;96821.63;5198561;28;20197;-75
2021/01/01 05:38:17;;;;;;;11.27;10.17;;;1.70;99.90;;;2.43;99.31;96832.66;5194765;28;20297;-75
2021/01/01 05:40:49;;;;;;;12.27;11.03;;;1.70;99.90;;;2.43;99.28;96830.13;5190046;28;20190;-75
2021/01/01 05:43:24;;;;;;;11.53;10.07;;;1.70;99.90;;;2.50;99.59;96832.34;5205585;28;20196;-75
2021/01/01 05:46:08;;;;;;;12.60;10.97;;;1.80;99.90;;;2.54;99.36;96834.31;5197597;28;20197;-75
2021/01/01 05:48:40;;;;;;;12.00;10.73;;;1.80;99.90;;;2.64;99.39;96846.81;5185539;28;20285;-75
2021/01/01 05:51:12;;;;;;;12.30;10.63;;;1.90;99.90;;;2.59;98.91;96840.56;5194885;28;20272;-75
2021/01/01 05:53:44;;;;;;;12.30;11.00;;;1.90;99.90;;;2.57;99.93;96842.09;5206154;28;20210;-75
2021/01/01 05:56:16;;;;;;;13.17;11.77;;;1.90;99.90;;;2.63;99.57;96845.06;5196236;28;20209;-75
2021/01/01 05:58:49;;;;;;;13.17;11.43;;;1.90;99.90;;;2.68;100.00;96847.91;5184809;28;20199;-75
2021/01/01 06:01:23;;;;;;;12.97;11.57;;;2.00;99.90;;;2.69;100.00;96837.94;5197718;28;20248;-75
2021/01/01 06:03:57;;;;;;;14.00;12.43;;;2.00;99.90;;;2.73;99.64;96838.13;5203399;28;20271;-75
2021/01/01 06:06:33;;;;;;;16.47;13.37;;;2.00;99.90;;;2.76;100.00;96838.34;5206467;28;20292;-75
2021/01/01 06:09:06;;;;;;;12.33;11.07;;;2.00;99.90;;;2.77;100.00;96840.97;5202703;28;20201;-75
2021/01/01 06:11:38;;;;;;;12.53;11.23;;;2.00;99.90;;;2.73;100.00;96843.19;5186052;28;20689;-76
2021/01/01 06:14:25;;;;;;;12.60;10.60;;;1.90;99.90;;;2.77;99.66;96845.13;5194484;28;20273;-75
2021/01/01 06:17:18;;;;;;;12.47;9.97;;;1.90;99.90;;;2.68;99.80;96845.38;5206390;28;20651;-75
2021/01/01 06:19:57;;;;;;;10.67;9.50;;;1.80;99.90;;;2.65;99.17;96851.06;5204772;28;20194;-75
2021/01/01 06:22:30;;;;;;;10.27;9.30;;;1.80;99.90;;;2.59;99.44;96855.69;5205805;28;20225;-75
2021/01/01 06:25:04;;;;;;;11.13;9.63;;;1.80;99.90;;;2.54;100.00;96859.53;5187782;28;20282;-76
2021/01/01 06:27:36;;;;;;;10.50;9.40;;;1.80;99.90;;;2.50;99.50;96857.56;5189212;28;20641;-75
2021/01/01 06:30:13;;;;;;;11.80;9.73;;;1.70;99.90;;;2.48;100.00;96859.97;5204711;28;20284;-75
2021/01/01 06:32:45;;;;;;;10.37;8.90;;;1.80;99.90;;;2.54;100.00;96862.03;5197152;28;20311;-75
2021/01/01 06:35:20;;;;;;;9.80;8.70;;;1.80;99.90;;;2.59;100.00;96864.91;5185168;28;20198;-75
2021/01/01 06:37:55;;;;;;;11.13;9.93;;;1.90;99.90;;;2.61;99.64;96873.47;5166784;28;538875;-75
2021/01/01 06:40:37;;;;;;;12.37;10.97;;;1.90;99.90;;;2.65;100.00;96875.44;5187723;28;20204;-76
2021/01/01 06:43:09;;;;;;;11.70;10.27;;;1.90;99.90;;;2.65;99.61;96880.47;5189123;28;20202;-75
2021/01/01 06:45:45;;;;;;;10.83;9.73;;;1.90;99.90;;;2.64;100.00;96879.59;5186355;28;20810;-75
2021/01/01 06:48:38;;;;;;;12.03;10.83;;;1.80;99.90;;;2.62;99.83;96886.16;5186482;28;20206;-75
2021/01/01 06:51:14;;;;;;;10.00;9.00;;;1.80;99.90;;;2.61;100.00;96889.47;5185164;28;20309;-75
2021/01/01 06:53:48;;;;;;;10.70;9.63;;;1.80;99.90;;;2.63;100.00;96898.03;5190726;28;20576;-75
2021/01/01 06:56:20;;;;;;;11.57;10.47;;;1.80;99.90;;;2.64;100.00;96897.25;5199037;28;20237;-75
2021/01/01 06:59:08;;;;;;;10.93;9.83;;;1.90;99.90;;;2.65;99.99;96900.66;5196847;28;20216;-75
2021/01/01 07:01:43;;;;;;;11.37;9.93;;;1.90;99.90;;;2.68;100.00;96906.78;5186394;28;20594;-77
2021/01/01 07:04:15;;;;;;;11.67;10.47;;;1.90;99.90;;;2.69;100.00;96906.03;5193557;28;20198;-76
2021/01/01 07:06:47;;;;;;;10.90;9.13;;;1.90;99.90;;;2.69;99.94;96908.56;5187340;28;20199;-75
2021/01/01 07:09:36;;;;;;;11.50;9.83;;;1.90;99.90;;;2.70;100.00;96920.41;5185927;28;20273;-75
2021/01/01 07:12:14;;;;;;;10.83;9.73;;;1.90;99.90;;;2.78;99.91;96917.56;5194111;28;20654;-75
2021/01/01 07:14:46;;;;;;;11.63;10.17;;;1.90;99.90;;;2.78;99.94;96923.47;5200481;28;20610;-75
2021/01/01 07:17:19;;;;;;;11.27;10.17;;;1.90;99.90;;;2.74;100.00;96920.59;5197374;28;20257;-76
2021/01/01 07:19:51;;;;;;;11.37;10.17;;;1.90;99.90;;;2.76;100.00;96921.59;5185184;28;20207;-75
2021/01/01 07:22:23;;;;;;;11.50;10.40;;;1.90;99.90;;;2.67;100.00;96925.22;5185869;28;20227;-74
2021/01/01 07:24:55;;;;;;;13.43;10.63;;;1.90;99.90;;;2.59;99.81;96935.53;5185582;28;20213;-75
2021/01/01 07:27:27;;;;;;;11.60;10.40;;;1.80;99.90;;;2.59;99.61;96931.34;5195269;28;20201;-75
2021/01/01 07:30:11;;;;;;;11.23;10.13;;;1.90;99.90;;;2.73;99.78;96931.47;5204931;28;20557;-75
2021/01/01 07:32:47;;;;;;;11.73;10.20;;;2.00;99.90;;;2.71;100.00;96947.38;5205879;28;20312;-76
2021/01/01 07:35:19;;;;;;;10.80;9.70;;;2.00;99.90;;;2.76;100.00;96954.41;5202216;28;20580;-75
2021/01/01 07:37:53;;;;;;;11.60;10.23;;;2.00;99.90;;;2.76;100.00;96951.88;5189677;28;20534;-75
2021/01/01 07:40:26;;;;;;;10.70;9.63;;;2.00;99.90;;;2.76;100.00;96955.28;5194612;28;20186;-76
2021/01/01 07:42:58;;;;;;;11.20;9.70;;;2.00;99.90;;;2.77;100.00;96958.66;5204620;28;20696;-76
2021/01/01 07:45:30;;;;;;;11.90;9.83;;;2.00;99.90;;;2.79;100.00;96959.66;5184532;28;20292;-75
2021/01/01 07:48:04;;;;;;;10.27;9.13;;;2.00;99.90;;;2.82;100.00;96959.88;5191453;28;20232;-75
2021/01/01 07:50:38;;;;;;;12.27;10.50;;;2.00;99.90;;;2.80;100.00;96969.84;5202860;28;20205;-75
2021/01/01 07:53:12;;;;;;;12.63;10.63;;;2.00;99.90;;;2.81;100.00;96975.81;5182963;28;20206;-75
2021/01/01 07:55:44;;;;;;;12.27;11.03;;;2.00;99.90;;;2.86;100.00;96975.38;5182087;28;20209;-75
2021/01/01 07:58:17;;;;;;;12.37;10.63;;;2.00;99.90;;;2.90;100.00;96978.97;5192657;28;20233;-75
2021/01/01 08:00:49;;;;;;;11.27;10.07;;;2.00;99.90;;;2.90;100.00;96984.91;5198568;28;20213;-76
2021/01/01 08:03:22;;;;;;;11.53;10.40;;;2.00;99.90;;;2.88;100.00;96990.59;5201611;28;20194;-78
2021/01/01 08:05:55;;;;;;;11.63;9.90;;;2.00;99.90;;;2.89;100.00;96992.34;5195713;28;20202;-77
2021/01/01 08:08:27;;;;;;;10.93;9.80;;;2.00;99.90;;;2.90;100.00;96989.06;5181985;28;20210;-76
2021/01/01 08:11:00;;;;;;;11.30;10.13;;;2.00;99.90;;;2.88;99.95;97000.69;5181721;28;20228;-77
2021/01/01 08:13:34;;;;;;;12.90;11.40;;;2.00;99.90;;;2.87;100.00;96996.44;5187432;28;20208;-76
2021/01/01 08:16:15;;;;;;;12.73;11.40;;;2.10;99.90;;;2.85;100.00;96991.25;5183042;28;20237;-77
2021/01/01 08:18:48;;;;;;;13.67;12.10;;;2.10;99.90;;;2.84;100.00;96989.50;5182219;28;20577;-76
2021/01/01 08:21:20;;;;;;;16.00;13.23;;;2.10;99.90;;;2.85;100.00;96987.84;5198152;28;20233;-77
2021/01/01 08:23:59;;;;;;;13.47;12.03;;;2.10;99.90;;;2.91;100.00;96995.88;5201306;28;20193;-78
2021/01/01 08:26:34;;;;;;;15.97;13.13;;;2.10;99.90;;;2.95;100.00;97002.91;5182277;28;20293;-77
2021/01/01 08:29:11;;;;;;;15.63;13.93;;;2.20;99.90;;;2.93;100.00;96996.88;5189900;28;20201;-78
2021/01/01 08:31:45;;;;;;;15.90;13.80;;;2.10;99.90;;;2.99;100.00;96998.94;5183590;28;20244;-77
2021/01/01 08:34:18;;;;;;;18.73;15.07;;;2.20;99.90;;;3.05;100.00;97002.78;5185326;28;20197;-77
2021/01/01 08:36:52;;;;;;;16.37;14.50;;;2.20;99.90;;;3.07;100.00;96998.72;5204345;28;20201;-77
2021/01/01 08:39:25;;;;;;;20.03;15.60;;;2.20;99.90;;;3.09;100.00;97007.31;5195713;28;20303;-77
2021/01/01 08:42:01;;;;;;;17.27;14.57;;;2.20;99.90;;;3.11;99.81;97015.84;5202177;28;20214;-77
2021/01/01 08:44:35;;;;;;;17.50;14.13;;;2.20;99.90;;;3.10;100.00;97016.63;5184603;28;20198;-77
2021/01/01 08:47:07;;;;;;;17.33;15.53;;;2.20;99.90;;;3.09;99.96;97016.50;5201931;28;20210;-77
2021/01/01 08:49:40;;;;;;;17.70;14.93;;;2.20;99.90;;;3.08;99.62;97015.63;5200724;28;20575;-77
2021/01/01 08:52:12;;;;;;;18.07;15.83;;;2.20;99.90;;;3.13;99.73;97029.47;5201289;28;20225;-77
2021/01/01 08:54:45;;;;;;;19.77;15.90;;;2.30;99.90;;;3.22;99.75;97025.84;5202579;28;20223;-77
2021/01/01 08:57:27;;;;;;;20.27;17.00;;;2.30;99.90;;;3.22;99.75;97030.88;5201376;28;20195;-77
2021/01/01 09:00:00;;;;;;;20.37;16.00;;;2.30;99.90;;;3.24;99.96;97034.41;5193654;28;20925;-77
2021/01/01 09:02:34;;;;;;;20.43;16.80;;;2.30;99.90;;;3.30;99.42;97042.41;5193047;28;20216;-78
2021/01/01 09:05:12;;;;;;;19.13;15.83;;;2.30;99.90;;;3.34;98.86;97034.28;5189677;28;20201;-77
2021/01/01 09:07:44;;;;;;;20.53;16.17;;;2.40;99.90;;;3.42;99.12;97030.66;5186855;28;20194;-76
2021/01/01 09:10:18;;;;;;;18.77;15.47;;;2.50;99.90;;;3.44;99.68;97035.84;5190806;28;20256;-78
2021/01/01 09:12:50;;;;;;;18.00;15.40;;;2.40;99.90;;;3.52;99.13;97033.06;5197593;28;20328;-78
2021/01/01 09:15:30;;;;;;;18.90;14.13;;;2.50;99.90;;;3.65;98.69;97041.50;5203198;28;20227;-77
2021/01/01 09:18:07;;;;;;;16.57;14.20;;;2.50;99.90;;;3.61;98.52;97041.28;5186265;28;20200;-78
2021/01/01 09:20:45;;;;;;;16.73;13.60;;;2.60;99.90;;;3.60;97.65;97047.09;5188234;28;20208;-77
2021/01/01 09:23:18;;;;;;;15.77;14.00;;;2.50;99.90;;;3.60;98.31;97041.16;5202271;28;20203;-77
2021/01/01 09:25:50;;;;;;;17.93;14.27;;;2.60;99.90;;;3.69;97.88;97051.03;5194784;28;20678;-77
2021/01/01 09:28:22;;;;;;;16.43;13.97;;;2.60;99.90;;;3.64;97.99;97049.88;5187619;28;20296;-78
2021/01/01 09:30:54;;;;;;;17.93;13.70;;;2.60;99.90;;;3.64;98.26;97054.91;5194748;28;20205;-78
2021/01/01 09:33:26;;;;;;;16.97;14.60;;;2.60;99.90;;;3.63;97.94;97054.00;5201454;28;20209;-78
2021/01/01 09:35:59;;;;;;;13.80;12.43;;;2.60;99.90;;;3.65;98.21;97051.59;5198481;28;20246;-78
2021/01/01 09:38:32;;;;;;;14.73;13.13;;;2.60;99.90;;;3.71;97.95;97062.16;5187464;28;20699;-77
2021/01/01 09:41:04;;;;;;;15.50;12.83;;;2.60;99.90;;;3.67;97.07;97061.06;5201249;28;20225;-78
2021/01/01 09:43:36;;;;;;;14.10;12.60;;;2.60;99.90;;;3.73;96.81;97061.47;5205604;28;20221;-79
2021/01/01 09:46:08;;;;;;;14.43;12.93;;;2.50;99.90;;;3.71;97.09;97070.59;5203702;28;20230;-78
2021/01/01 09:48:40;;;;;;;14.27;11.73;;;2.60;99.90;;;3.68;96.70;97067.84;5208873;28;20320;-78
2021/01/01 09:51:15;;;;;;;13.87;12.33;;;2.50;99.90;;;3.71;96.86;97062.16;5192288;28;20228;-78
2021/01/01 09:53:47;;;;;;;13.97;12.57;;;2.60;99.90;;;3.72;96.65;97071.47;5187558;28;20199;-79
2021/01/01 09:56:19;;;;;;;15.10;13.57;;;2.70;99.90;;;3.75;96.65;97066.63;5192814;28;20194;-77
2021/01/01 09:58:52;;;;;;;15.00;12.43;;;2.60;99.90;;;3.73;96.19;97066.53;5202282;28;20201;-79
2021/01/01 10:01:24;;;;;;;14.03;12.53;;;2.60;99.90;;;3.71;96.68;97069.72;5187763;28;20224;-78
2021/01/01 10:03:57;;;;;;;14.50;12.33;;;2.60;99.90;;;3.76;96.48;97070.94;5190222;28;20222;-78
2021/01/01 10:06:30;;;;;;;14.40;12.40;;;2.60;99.90;;;3.74;97.02;97072.47;5195208;28;20233;-77
2021/01/01 10:09:02;;;;;;;12.57;11.27;;;2.60;99.90;;;3.69;96.70;97074.69;5199688;28;20201;-76
2021/01/01 10:11:34;;;;;;;13.57;11.43;;;2.60;99.90;;;3.74;96.66;97072.47;5214312;28;20221;-76
2021/01/01 10:14:06;;;;;;;13.17;11.73;;;2.60;99.90;;;3.74;96.59;97064.88;5194888;28;20268;-80
2021/01/01 10:16:47;;;;;;;13.43;12.03;;;2.60;99.90;;;3.78;96.05;97075.31;5204234;28;20554;-78
2021/01/01 10:19:19;;;;;;;12.80;11.37;;;2.60;99.90;;;3.79;96.22;97071.16;5217919;28;20203;-77
2021/01/01 10:21:52;;;;;;;13.37;11.97;;;2.60;99.90;;;3.79;95.75;97071.16;5195484;28;20251;-76
2021/01/01 10:24:25;;;;;;;12.93;11.50;;;2.60;99.90;;;3.78;96.23;97075.31;5193635;28;20649;-79
2021/01/01 10:26:57;;;;;;;13.07;11.77;;;2.60;99.90;;;3.84;95.31;97074.88;5191910;28;20196;-78
2021/01/01 10:29:29;;;;;;;13.47;11.63;;;2.60;99.90;;;3.86;95.58;97073.31;5200531;28;20201;-78
2021/01/01 10:32:06;;;;;;;13.30;11.93;;;2.60;99.90;;;3.88;94.23;97076.84;5206482;28;20235;-77
2021/01/01 10:34:40;;;;;;;14.20;12.53;;;2.60;99.90;;;3.86;95.38;97073.31;5191932;28;20683;-76
2021/01/01 10:37:13;;;;;;;12.60;11.30;;;2.70;99.90;;;3.79;94.75;97072.03;5189393;28;20212;-78
2021/01/01 10:39:45;;;;;;;13.10;11.70;;;2.60;99.90;;;3.79;95.25;97071.16;5189673;28;20238;-77
2021/01/01 10:42:17;;;;;;;12.57;11.27;;;2.60;99.90;;;3.80;95.59;97073.75;5190024;28;20267;-79
2021/01/01 10:44:49;;;;;;;12.20;11.10;;;2.70;99.90;;;3.84;95.61;97065.63;5193958;28;20205;-77
2021/01/01 10:47:21;;;;;;;14.97;13.57;;;2.60;99.90;;;3.77;94.86;97065.09;5187696;28;20219;-77